createdAt,value
2018-04-12T00:01:26.953Z,14.3
2018-04-12T00:11:26.256Z,13.9
2018-04-12T00:21:26.296Z,15.1
2018-04-12T00:31:26.529Z,13.8
2018-04-12T00:41:27.651Z,15.6
2018-04-12T00:51:26.584Z,15.1
2018-04-12T01:01:27.419Z,15.4
2018-04-12T01:11:27.762Z,13.8
2018-04-12T01:21:26.592Z,13.5
2018-04-12T01:31:29.220Z,13.5
2018-04-12T01:41:26.695Z,13.0
2018-04-12T01:51:26.546Z,14.1
2018-04-12T02:01:27.869Z,14.6
2018-04-12T02:11:27.391Z,14.8
2018-04-12T02:21:27.767Z,13.9
2018-04-12T02:31:26.673Z,15.3
2018-04-12T02:41:27.191Z,13.4
2018-04-12T02:51:26.272Z,13.5
2018-04-12T03:01:25.982Z,13.1
2018-04-12T03:11:27.222Z,13.5
2018-04-12T03:21:27.197Z,12.8
2018-04-12T03:31:27.432Z,12.6
2018-04-12T03:41:26.959Z,12.1
2018-04-12T03:51:28.282Z,12.4
2018-04-12T04:01:26.748Z,13.3
2018-04-12T04:11:26.458Z,13.6
2018-04-12T04:21:26.237Z,13.3
2018-04-12T04:31:26.720Z,13.9
2018-04-12T04:44:11.650Z,12.3
2018-04-12T04:51:30.085Z,12.6
2018-04-12T05:01:26.910Z,12.1
2018-04-12T05:11:26.526Z,12.4
2018-04-12T05:21:26.288Z,15.6
2018-04-12T05:31:27.321Z,16.8
2018-04-12T05:41:25.960Z,15.3
2018-04-12T05:51:29.221Z,19.0
2018-04-12T06:01:26.382Z,20.0
2018-04-12T06:11:26.523Z,21.6
2018-04-12T06:21:27.040Z,25.5
2018-04-12T06:31:26.744Z,23.2
2018-04-12T06:41:28.309Z,29.6
2018-04-12T06:51:27.811Z,29.3
2018-04-12T07:01:26.549Z,28.9
2018-04-12T07:11:27.907Z,23.9
2018-04-12T07:21:26.030Z,20.1
2018-04-12T07:31:30.848Z,19.4
2018-04-12T07:41:26.679Z,18.1
2018-04-12T07:51:27.293Z,15.3
2018-04-12T08:01:26.290Z,17.7
2018-04-12T08:11:26.476Z,14.2
2018-04-12T08:21:28.017Z,15.9
2018-04-12T08:31:34.009Z,12.9
2018-04-12T08:41:28.667Z,14.2
2018-04-12T08:51:28.925Z,11.0
2018-04-12T09:01:28.898Z,9.2
2018-04-12T09:11:26.625Z,8.6
2018-04-12T09:21:26.776Z,8.6
2018-04-12T09:31:27.101Z,8.9
2018-04-12T09:41:25.069Z,8.2
2018-04-12T09:51:24.810Z,9.7
2018-04-12T10:01:25.921Z,8.1
2018-04-12T10:11:25.736Z,7.5
2018-04-12T10:21:27.423Z,8.1
2018-04-12T10:31:26.595Z,6.7
2018-04-12T10:41:25.631Z,6.3
2018-04-12T10:51:27.203Z,6.7
2018-04-12T11:01:30.985Z,6.9
2018-04-12T11:11:27.089Z,5.9
2018-04-12T11:21:25.804Z,4.8
2018-04-12T11:31:26.175Z,4.9
2018-04-12T11:41:25.481Z,4.5
2018-04-12T11:51:25.841Z,4.1
2018-04-12T12:01:27.339Z,4.7
2018-04-12T12:11:25.766Z,4.5
2018-04-12T12:21:25.898Z,4.3
2018-04-12T12:31:27.829Z,4.1
2018-04-12T12:41:26.479Z,4.7
2018-04-12T12:51:25.604Z,4.1
2018-04-12T13:01:26.988Z,5.0
2018-04-12T13:11:27.570Z,4.9
2018-04-12T13:21:28.210Z,5.5
2018-04-12T13:31:25.030Z,5.7
2018-04-12T13:41:27.247Z,5.0
2018-04-12T13:51:24.996Z,4.9
2018-04-12T14:01:25.829Z,5.4
2018-04-12T14:11:25.986Z,5.1
2018-04-12T14:21:26.798Z,5.0
2018-04-12T14:31:31.068Z,4.8
2018-04-12T14:41:25.269Z,4.5
2018-04-12T14:51:25.630Z,4.9
2018-04-12T15:01:27.344Z,4.4
2018-04-12T15:11:25.094Z,4.3
2018-04-12T15:21:26.839Z,4.8
2018-04-12T15:31:25.659Z,4.5
2018-04-12T15:41:31.505Z,5.2
2018-04-12T15:51:25.376Z,5.2
2018-04-12T16:01:26.784Z,4.8
2018-04-12T16:11:25.997Z,5.0
2018-04-12T16:21:25.107Z,5.7
2018-04-12T16:31:27.427Z,5.2
2018-04-12T16:41:26.226Z,4.6
2018-04-12T16:51:25.099Z,6.4
2018-04-12T17:01:25.029Z,6.3
2018-04-12T17:11:27.360Z,6.4
2018-04-12T17:21:30.793Z,5.9
2018-04-12T17:31:27.081Z,5.7
2018-04-12T17:41:26.638Z,7.1
2018-04-12T17:51:25.507Z,8.0
2018-04-12T18:01:27.056Z,9.8
2018-04-12T18:11:29.256Z,11.0
2018-04-12T18:21:26.091Z,10.5
2018-04-12T18:31:32.732Z,10.9
2018-04-12T18:41:31.383Z,12.9
2018-04-12T18:51:25.771Z,13.7
2018-04-12T19:01:27.381Z,13.1
2018-04-12T19:11:26.653Z,12.9
2018-04-12T19:21:27.911Z,12.6
2018-04-12T19:31:25.717Z,14.1
2018-04-12T19:41:26.095Z,12.9
2018-04-12T20:11:32.428Z,23.7
2018-04-12T20:41:26.062Z,15.6
2018-04-12T20:51:31.922Z,15.6
2018-04-12T21:01:32.521Z,15.1
2018-04-12T21:11:26.247Z,14.2
2018-04-12T21:21:26.773Z,14.3
2018-04-12T21:31:26.554Z,13.9
2018-04-12T21:41:26.465Z,13.5
2018-04-12T21:51:26.079Z,14.2
2018-04-12T22:01:26.734Z,14.0
2018-04-12T22:11:26.063Z,13.3
2018-04-12T22:21:26.004Z,13.8
2018-04-12T22:31:27.190Z,13.4
2018-04-12T22:41:28.720Z,14.4
2018-04-12T22:51:24.880Z,14.5
2018-04-12T23:01:27.918Z,15.7
2018-04-12T23:11:25.664Z,15.8
2018-04-12T23:21:27.035Z,15.8
2018-04-12T23:31:26.335Z,17.1
2018-04-12T23:41:29.541Z,17.0
2018-04-12T23:51:25.539Z,17.3
